createdAt,value
2017-11-07T00:02:20.592Z,21.37
2017-11-07T00:04:47.985Z,22.73
2017-11-07T00:07:15.390Z,21.60
2017-11-07T00:09:42.778Z,21.20
2017-11-07T00:12:10.162Z,20.80
2017-11-07T00:14:37.558Z,20.47
2017-11-07T00:17:04.952Z,22.83
2017-11-07T00:19:32.338Z,22.37
2017-11-07T00:21:59.742Z,22.30
2017-11-07T00:24:27.130Z,21.60
2017-11-07T00:26:54.523Z,19.97
2017-11-07T00:29:21.934Z,20.90
2017-11-07T00:31:49.321Z,19.90
2017-11-07T00:34:16.710Z,20.80
2017-11-07T00:36:44.120Z,19.67
2017-11-07T00:39:11.505Z,19.23
2017-11-07T00:41:38.890Z,21.67
2017-11-07T00:44:06.294Z,22.53
2017-11-07T00:46:33.686Z,22.73
2017-11-07T00:49:01.082Z,21.30
2017-11-07T00:51:28.497Z,20.70
2017-11-07T00:53:55.898Z,19.40
2017-11-07T00:56:23.298Z,19.43
2017-11-07T00:58:50.690Z,21.37
2017-11-07T01:01:18.090Z,21.33
2017-11-07T01:03:45.487Z,20.97
2017-11-07T01:06:12.893Z,23.08
2017-11-07T01:08:40.293Z,23.12
2017-11-07T01:11:07.699Z,22.33
2017-11-07T01:13:35.101Z,23.20
2017-11-07T01:16:02.490Z,23.23
2017-11-07T01:18:29.887Z,24.40
2017-11-07T01:20:57.282Z,23.77
2017-11-07T01:23:24.688Z,24.98
2017-11-07T01:25:52.086Z,24.50
2017-11-07T01:28:19.558Z,24.73
2017-11-07T01:30:46.950Z,27.62
2017-11-07T01:33:14.366Z,25.33
2017-11-07T01:35:41.795Z,25.02
2017-11-07T01:38:09.196Z,25.73
2017-11-07T01:40:36.592Z,22.98
2017-11-07T01:43:04.004Z,22.25
2017-11-07T01:45:31.397Z,23.15
2017-11-07T01:47:58.786Z,25.17
2017-11-07T01:50:26.190Z,26.62
2017-11-07T01:52:53.881Z,25.50
2017-11-07T01:55:21.286Z,28.40
2017-11-07T01:57:48.698Z,28.05
2017-11-07T02:00:16.101Z,26.27
2017-11-07T02:02:43.499Z,26.60
2017-11-07T02:05:10.914Z,24.92
2017-11-07T02:07:38.306Z,25.75
2017-11-07T02:10:05.707Z,24.37
2017-11-07T02:12:33.142Z,24.33
2017-11-07T02:15:00.541Z,24.60
2017-11-07T02:17:27.938Z,25.50
2017-11-07T02:19:55.343Z,25.83
2017-11-07T02:22:22.741Z,25.70
2017-11-07T02:24:50.141Z,24.67
2017-11-07T02:27:17.564Z,23.33
2017-11-07T02:29:44.946Z,24.52
2017-11-07T02:32:12.359Z,22.98
2017-11-07T02:34:40.567Z,23.87
2017-11-07T02:37:07.962Z,23.92
2017-11-07T02:39:35.358Z,24.30
2017-11-07T02:42:02.780Z,23.95
2017-11-07T02:44:30.174Z,24.58
2017-11-07T02:46:57.569Z,23.58
2017-11-07T02:49:25.093Z,24.10
2017-11-07T02:51:52.485Z,23.05
2017-11-07T02:54:19.899Z,23.70
2017-11-07T02:56:47.316Z,23.95
2017-11-07T02:59:14.711Z,23.10
2017-11-07T03:01:42.116Z,22.75
2017-11-07T03:04:09.534Z,24.30
2017-11-07T03:06:36.930Z,22.20
2017-11-07T03:09:04.327Z,20.60
2017-11-07T03:11:31.734Z,22.65
2017-11-07T03:13:59.140Z,23.17
2017-11-07T03:16:26.522Z,21.98
2017-11-07T03:18:53.939Z,22.77
2017-11-07T03:21:21.338Z,22.92
2017-11-07T03:23:48.738Z,24.50
2017-11-07T03:26:16.145Z,23.95
2017-11-07T03:28:43.542Z,21.17
2017-11-07T03:31:10.939Z,20.55
2017-11-07T03:33:38.347Z,20.80
2017-11-07T03:36:05.748Z,20.67
2017-11-07T03:38:33.140Z,20.77
2017-11-07T03:41:00.549Z,20.35
2017-11-07T03:43:27.954Z,17.67
2017-11-07T03:45:55.350Z,18.55
2017-11-07T03:48:22.767Z,17.15
2017-11-07T03:50:50.161Z,18.55
2017-11-07T03:53:17.562Z,19.25
2017-11-07T03:55:44.970Z,18.50
2017-11-07T03:58:12.362Z,16.85
2017-11-07T04:00:39.779Z,17.48
2017-11-07T04:03:07.210Z,18.33
2017-11-07T04:05:34.613Z,18.30
2017-11-07T04:08:02.027Z,18.35
2017-11-07T04:10:29.446Z,19.42
2017-11-07T04:12:56.840Z,18.48
2017-11-07T04:15:24.242Z,18.40
2017-11-07T04:17:51.650Z,17.23
2017-11-07T04:20:19.050Z,18.37
2017-11-07T04:22:46.442Z,18.37
2017-11-07T04:25:13.863Z,17.67
2017-11-07T04:27:41.258Z,18.42
2017-11-07T04:30:08.654Z,17.98
2017-11-07T04:32:36.074Z,17.90
2017-11-07T04:35:03.481Z,18.30
2017-11-07T04:37:30.866Z,18.73
2017-11-07T04:39:58.273Z,19.12
2017-11-07T04:42:25.675Z,19.30
2017-11-07T04:44:53.071Z,21.30
2017-11-07T04:47:20.480Z,20.27
2017-11-07T04:49:47.874Z,19.60
2017-11-07T04:52:15.279Z,18.70
2017-11-07T04:54:42.701Z,18.50
2017-11-07T04:57:10.091Z,18.98
2017-11-07T04:59:37.678Z,19.50
2017-11-07T05:02:05.086Z,17.45
2017-11-07T05:04:32.482Z,18.30
2017-11-07T05:06:59.887Z,18.30
2017-11-07T05:09:27.290Z,17.42
2017-11-07T05:11:54.690Z,17.02
2017-11-07T05:14:22.083Z,15.75
2017-11-07T05:16:49.513Z,17.52
2017-11-07T05:19:16.899Z,17.12
2017-11-07T05:21:44.294Z,16.95
2017-11-07T05:24:11.703Z,16.75
2017-11-07T05:26:39.101Z,16.80
2017-11-07T05:29:06.494Z,16.40
2017-11-07T05:31:33.902Z,18.27
2017-11-07T05:34:01.300Z,16.20
2017-11-07T05:36:28.695Z,16.55
2017-11-07T05:38:56.101Z,15.93
2017-11-07T05:41:23.498Z,14.87
2017-11-07T05:43:50.891Z,15.02
2017-11-07T05:46:18.308Z,14.55
2017-11-07T05:48:45.727Z,15.30
2017-11-07T05:51:13.145Z,15.23
2017-11-07T05:53:40.546Z,14.20
2017-11-07T05:56:07.945Z,15.20
2017-11-07T05:58:35.350Z,15.88
2017-11-07T06:01:02.806Z,15.73
2017-11-07T06:03:30.212Z,15.35
2017-11-07T06:05:57.598Z,16.42
2017-11-07T06:08:25.011Z,15.75
2017-11-07T06:10:52.402Z,15.75
2017-11-07T06:13:19.798Z,15.25
2017-11-07T06:15:47.207Z,15.27
2017-11-07T06:18:14.602Z,16.08
2017-11-07T06:20:42.012Z,16.27
2017-11-07T06:23:09.435Z,15.88
2017-11-07T06:25:36.831Z,15.77
2017-11-07T06:28:04.226Z,15.23
2017-11-07T06:30:31.633Z,15.00
2017-11-07T06:32:59.034Z,16.23
2017-11-07T06:35:26.438Z,17.17
2017-11-07T06:37:53.834Z,19.08
2017-11-07T06:40:21.226Z,16.60
2017-11-07T06:42:48.619Z,16.55
2017-11-07T06:45:16.033Z,19.58
2017-11-07T06:47:43.436Z,17.95
2017-11-07T06:50:10.822Z,16.92
2017-11-07T06:52:38.235Z,18.23
2017-11-07T06:55:05.626Z,16.77
2017-11-07T06:57:33.026Z,19.52
2017-11-07T07:00:00.439Z,18.08
2017-11-07T07:02:27.827Z,17.58
2017-11-07T07:04:55.218Z,17.73
2017-11-07T07:07:22.635Z,16.95
2017-11-07T07:09:50.034Z,16.90
2017-11-07T07:12:17.430Z,17.83
2017-11-07T07:14:44.839Z,18.42
2017-11-07T07:17:12.230Z,17.33
2017-11-07T07:19:39.662Z,19.62
2017-11-07T07:22:07.063Z,18.45
2017-11-07T07:24:34.457Z,18.12
2017-11-07T07:27:01.867Z,18.50
2017-11-07T07:29:29.286Z,18.33
2017-11-07T07:31:56.688Z,17.42
2017-11-07T07:34:24.082Z,17.87
2017-11-07T07:36:51.497Z,17.67
2017-11-07T07:39:18.918Z,17.12
2017-11-07T07:41:46.311Z,18.27
2017-11-07T07:44:13.722Z,16.45
2017-11-07T07:46:41.129Z,16.75
2017-11-07T07:49:08.547Z,16.48
2017-11-07T07:51:35.949Z,17.35
2017-11-07T07:54:03.353Z,16.77
2017-11-07T07:56:30.747Z,17.15
2017-11-07T07:58:58.158Z,17.45
2017-11-07T08:01:25.551Z,17.20
2017-11-07T08:03:52.950Z,17.00
2017-11-07T08:06:20.372Z,19.17
2017-11-07T08:08:47.766Z,17.37
2017-11-07T08:11:15.167Z,17.30
2017-11-07T08:13:42.604Z,17.67
2017-11-07T08:16:09.998Z,18.50
2017-11-07T08:18:37.389Z,16.05
2017-11-07T08:21:04.807Z,17.42
2017-11-07T08:23:32.202Z,15.85
2017-11-07T08:25:59.598Z,15.13
2017-11-07T08:28:27.006Z,15.80
2017-11-07T08:30:54.402Z,17.75
2017-11-07T08:33:21.802Z,16.40
2017-11-07T08:35:49.219Z,17.73
2017-11-07T08:38:16.614Z,17.00
2017-11-07T08:40:44.010Z,17.02
2017-11-07T08:43:11.425Z,16.87
2017-11-07T08:45:38.818Z,16.95
2017-11-07T08:48:06.215Z,18.77
2017-11-07T08:50:33.625Z,17.90
2017-11-07T08:53:01.025Z,16.05
2017-11-07T08:55:28.423Z,14.63
2017-11-07T08:57:55.852Z,14.70
2017-11-07T09:00:23.239Z,14.97
2017-11-07T09:02:50.647Z,15.68
2017-11-07T09:05:18.046Z,15.50
2017-11-07T09:07:45.441Z,13.83
2017-11-07T09:10:12.831Z,13.73
2017-11-07T09:12:40.238Z,13.77
2017-11-07T09:15:07.631Z,13.40
2017-11-07T09:17:35.011Z,13.63
2017-11-07T09:20:02.422Z,12.80
2017-11-07T09:22:29.814Z,13.07
2017-11-07T09:24:57.206Z,13.73
2017-11-07T09:27:24.614Z,13.90
2017-11-07T09:29:52.010Z,13.57
2017-11-07T09:32:19.399Z,14.20
2017-11-07T09:34:46.790Z,13.57
2017-11-07T09:37:14.178Z,13.50
2017-11-07T09:39:41.562Z,13.43
2017-11-07T09:42:08.974Z,13.53
2017-11-07T09:44:36.363Z,13.70
2017-11-07T09:47:03.756Z,15.00
2017-11-07T09:49:31.154Z,12.77
2017-11-07T09:51:58.543Z,12.87
2017-11-07T09:54:25.942Z,14.87
2017-11-07T09:56:53.351Z,12.10
2017-11-07T09:59:20.764Z,13.70
2017-11-07T10:01:48.156Z,12.90
2017-11-07T10:04:15.582Z,12.00
2017-11-07T10:06:42.972Z,13.03
2017-11-07T10:09:10.362Z,14.13
2017-11-07T10:11:37.771Z,13.17
2017-11-07T10:14:05.159Z,12.43
2017-11-07T10:16:32.554Z,12.80
2017-11-07T10:18:59.954Z,12.30
2017-11-07T10:21:27.355Z,11.63
2017-11-07T10:23:54.745Z,12.80
2017-11-07T10:26:22.154Z,13.10
2017-11-07T10:28:49.546Z,12.70
2017-11-07T10:31:16.947Z,12.70
2017-11-07T10:33:44.355Z,12.83
2017-11-07T10:36:11.746Z,11.80
2017-11-07T10:38:39.137Z,13.43
2017-11-07T10:41:06.554Z,14.33
2017-11-07T10:43:33.951Z,14.00
2017-11-07T10:46:01.342Z,14.03
2017-11-07T10:48:28.757Z,14.70
2017-11-07T10:50:56.146Z,14.00
2017-11-07T10:53:23.546Z,13.77
2017-11-07T10:55:50.951Z,13.50
2017-11-07T10:58:18.344Z,14.50
2017-11-07T11:00:45.731Z,14.30
2017-11-07T11:03:13.146Z,15.27
2017-11-07T11:05:40.543Z,14.17
2017-11-07T11:08:07.941Z,13.80
2017-11-07T11:10:35.348Z,12.27
2017-11-07T11:13:02.739Z,13.17
2017-11-07T11:15:30.129Z,13.10
2017-11-07T11:17:57.534Z,12.23
2017-11-07T11:20:24.933Z,12.47
2017-11-07T11:22:52.322Z,13.83
2017-11-07T11:25:19.743Z,14.00
2017-11-07T11:27:47.130Z,13.37
2017-11-07T11:30:14.526Z,12.47
2017-11-07T11:32:41.948Z,12.07
2017-11-07T11:35:09.343Z,12.37
2017-11-07T11:37:36.738Z,11.97
2017-11-07T11:40:04.143Z,12.10
2017-11-07T11:42:31.536Z,13.37
2017-11-07T11:44:58.925Z,12.73
2017-11-07T11:47:26.327Z,12.20
2017-11-07T11:49:53.726Z,13.00
2017-11-07T11:52:21.231Z,13.43
2017-11-07T11:54:48.621Z,12.60
2017-11-07T11:57:16.014Z,13.67
2017-11-07T11:59:43.409Z,13.90
2017-11-07T12:02:10.827Z,14.10
2017-11-07T12:04:38.221Z,14.40
2017-11-07T12:07:05.618Z,13.77
2017-11-07T12:09:33.025Z,15.80
2017-11-07T12:12:00.735Z,16.10
2017-11-07T12:14:28.114Z,15.20
2017-11-07T12:16:55.523Z,14.40
2017-11-07T12:19:22.919Z,14.90
2017-11-07T12:21:50.315Z,15.40
2017-11-07T12:24:17.719Z,14.60
2017-11-07T12:26:45.110Z,13.70
2017-11-07T12:29:12.507Z,13.77
2017-11-07T12:31:39.913Z,15.60
2017-11-07T12:34:07.302Z,15.47
2017-11-07T12:36:34.695Z,16.53
2017-11-07T12:39:02.121Z,15.50
2017-11-07T12:41:29.506Z,14.60
2017-11-07T12:43:56.897Z,14.87
2017-11-07T12:46:24.310Z,15.43
2017-11-07T12:48:51.706Z,15.80
2017-11-07T12:51:30.931Z,14.93
2017-11-07T12:53:58.321Z,15.47
2017-11-07T12:56:25.718Z,16.67
2017-11-07T12:58:53.131Z,16.60
2017-11-07T13:01:20.522Z,17.67
2017-11-07T13:03:47.917Z,18.47
2017-11-07T13:06:15.334Z,20.27
2017-11-07T13:08:42.718Z,19.77
2017-11-07T13:11:10.113Z,18.63
2017-11-07T13:13:37.518Z,20.60
2017-11-07T13:16:04.910Z,20.90
2017-11-07T13:18:32.302Z,21.07
2017-11-07T13:20:59.718Z,22.37
2017-11-07T13:23:27.114Z,19.90
2017-11-07T13:25:54.510Z,22.00
2017-11-07T13:28:21.922Z,23.43
2017-11-07T13:30:49.310Z,21.40
2017-11-07T13:33:16.711Z,23.33
2017-11-07T13:35:44.116Z,20.67
2017-11-07T13:38:11.512Z,21.27
2017-11-07T13:40:38.906Z,22.40
2017-11-07T13:43:06.314Z,21.60
2017-11-07T13:45:33.738Z,20.20
2017-11-07T13:48:01.134Z,21.40
2017-11-07T13:50:28.538Z,23.80
2017-11-07T13:52:55.933Z,20.43
2017-11-07T13:55:23.326Z,21.50
2017-11-07T13:57:50.723Z,21.40
2017-11-07T14:00:18.126Z,21.93
2017-11-07T14:02:45.938Z,21.17
2017-11-07T14:05:13.358Z,21.40
2017-11-07T14:07:41.355Z,20.33
2017-11-07T14:10:08.753Z,22.90
2017-11-07T14:12:36.957Z,21.97
2017-11-07T14:15:04.342Z,26.50
2017-11-07T14:17:32.022Z,21.37
2017-11-07T14:19:59.422Z,23.30
2017-11-07T14:22:26.820Z,21.83
2017-11-07T14:24:54.289Z,20.60
2017-11-07T14:27:21.770Z,19.90
2017-11-07T14:29:49.159Z,19.00
2017-11-07T14:32:17.478Z,19.37
2017-11-07T14:34:44.890Z,22.00
2017-11-07T14:37:12.314Z,20.33
2017-11-07T14:39:39.716Z,21.90
2017-11-07T14:42:07.175Z,20.90
2017-11-07T14:44:34.557Z,21.27
2017-11-07T14:47:01.952Z,23.27
2017-11-07T14:49:29.359Z,22.40
2017-11-07T14:51:56.741Z,22.63
2017-11-07T14:54:25.050Z,24.73
2017-11-07T14:56:52.454Z,25.87
2017-11-07T14:59:19.843Z,24.60
2017-11-07T15:01:47.234Z,24.10
2017-11-07T15:04:14.643Z,24.33
2017-11-07T15:06:42.026Z,22.20
2017-11-07T15:09:09.415Z,25.20
2017-11-07T15:11:36.917Z,25.13
2017-11-07T15:14:04.315Z,25.37
2017-11-07T15:16:31.703Z,25.40
2017-11-07T15:18:59.101Z,25.10
2017-11-07T15:21:26.490Z,23.80
2017-11-07T15:23:53.882Z,24.37
2017-11-07T15:26:21.390Z,24.60
2017-11-07T15:28:48.782Z,25.40
2017-11-07T15:31:16.986Z,23.47
2017-11-07T15:33:44.398Z,26.90
2017-11-07T15:36:12.866Z,25.50
2017-11-07T15:38:40.260Z,24.43
2017-11-07T15:41:07.881Z,24.70
2017-11-07T15:43:35.266Z,25.50
2017-11-07T15:46:02.670Z,25.40
2017-11-07T15:48:30.071Z,26.83
2017-11-07T15:50:57.454Z,26.43
2017-11-07T15:53:24.843Z,26.30
2017-11-07T15:55:52.281Z,25.10
2017-11-07T15:58:19.668Z,24.83
2017-11-07T16:00:47.055Z,25.83
2017-11-07T16:03:14.998Z,26.47
2017-11-07T16:05:42.391Z,26.63
2017-11-07T16:08:09.777Z,25.73
2017-11-07T16:10:37.199Z,25.37
2017-11-07T16:13:04.662Z,25.57
2017-11-07T16:15:32.060Z,26.50
2017-11-07T16:17:59.463Z,26.40
2017-11-07T16:20:26.845Z,28.13
2017-11-07T16:22:54.234Z,25.90
2017-11-07T16:25:21.637Z,25.80
2017-11-07T16:27:49.021Z,25.80
2017-11-07T16:30:16.422Z,25.57
2017-11-07T16:32:43.823Z,23.83
2017-11-07T16:35:11.219Z,23.90
2017-11-07T16:37:38.606Z,26.63
2017-11-07T16:40:06.150Z,26.00
2017-11-07T16:42:33.584Z,25.90
2017-11-07T16:45:01.038Z,27.37
2017-11-07T16:47:28.443Z,26.43
2017-11-07T16:49:55.835Z,25.27
2017-11-07T16:52:23.226Z,25.83
2017-11-07T16:54:50.626Z,25.40
2017-11-07T16:57:18.023Z,25.50
2017-11-07T16:59:46.441Z,25.30
2017-11-07T17:02:14.768Z,25.87
2017-11-07T17:04:43.142Z,28.00
2017-11-07T17:07:11.706Z,24.77
2017-11-07T17:09:39.106Z,24.07
2017-11-07T17:12:06.497Z,25.97
2017-11-07T17:14:33.889Z,24.03
2017-11-07T17:17:01.290Z,23.90
2017-11-07T17:19:28.678Z,25.93
2017-11-07T17:21:56.087Z,26.63
2017-11-07T17:24:23.493Z,26.10
2017-11-07T17:26:50.886Z,26.30
2017-11-07T17:29:18.287Z,25.70
2017-11-07T17:31:45.682Z,25.93
2017-11-07T17:34:13.070Z,25.77
2017-11-07T17:36:40.467Z,25.00
2017-11-07T17:39:07.870Z,24.50
2017-11-07T17:41:35.258Z,28.57
2017-11-07T17:44:02.650Z,27.00
2017-11-07T17:46:30.054Z,27.87
2017-11-07T17:48:57.451Z,27.73
2017-11-07T17:51:24.838Z,26.80
2017-11-07T17:53:52.241Z,26.13
2017-11-07T17:56:19.633Z,26.93
2017-11-07T17:58:47.023Z,28.00
2017-11-07T18:01:14.418Z,24.60
2017-11-07T18:03:41.805Z,26.27
2017-11-07T18:06:09.194Z,26.73
2017-11-07T18:08:36.605Z,24.80
2017-11-07T18:11:03.993Z,27.07
2017-11-07T18:13:31.382Z,28.23
2017-11-07T18:15:58.786Z,28.87
2017-11-07T18:18:26.178Z,25.83
2017-11-07T18:20:53.791Z,25.67
2017-11-07T18:23:21.194Z,25.90
2017-11-07T18:25:48.587Z,26.63
2017-11-07T18:28:15.983Z,28.10
2017-11-07T18:30:43.388Z,27.07
2017-11-07T18:33:10.774Z,28.17
2017-11-07T18:35:38.209Z,28.43
2017-11-07T18:38:05.646Z,28.23
2017-11-07T18:40:33.039Z,28.30
2017-11-07T18:43:00.486Z,27.80
2017-11-07T18:45:27.886Z,26.30
2017-11-07T18:47:55.285Z,26.67
2017-11-07T18:50:22.674Z,26.63
2017-11-07T18:52:50.074Z,27.50
2017-11-07T18:55:17.463Z,25.53
2017-11-07T18:57:45.029Z,25.40
2017-11-07T19:00:13.391Z,25.90
2017-11-07T19:02:40.798Z,25.70
2017-11-07T19:05:08.187Z,25.90
2017-11-07T19:07:35.594Z,27.27
2017-11-07T19:10:02.978Z,26.60
2017-11-07T19:12:30.366Z,26.60
2017-11-07T19:14:57.779Z,26.90
2017-11-07T19:17:25.254Z,24.60
2017-11-07T19:19:52.638Z,25.67
2017-11-07T19:22:20.885Z,26.70
2017-11-07T19:24:49.186Z,25.50
2017-11-07T19:27:16.570Z,26.47
2017-11-07T19:29:43.970Z,24.83
2017-11-07T19:32:11.370Z,24.83
2017-11-07T19:34:38.804Z,24.60
2017-11-07T19:37:06.207Z,22.40
2017-11-07T19:39:33.598Z,23.33
2017-11-07T19:42:00.986Z,23.63
2017-11-07T19:44:28.389Z,23.17
2017-11-07T19:46:55.782Z,22.90
2017-11-07T19:49:23.177Z,24.70
2017-11-07T19:51:50.581Z,23.93
2017-11-07T19:54:17.975Z,22.87
2017-11-07T19:56:45.363Z,21.87
2017-11-07T19:59:12.803Z,23.20
2017-11-07T20:01:40.186Z,21.10
2017-11-07T20:04:07.582Z,23.03
2017-11-07T20:06:35.806Z,22.33
2017-11-07T20:09:03.200Z,21.43
2017-11-07T20:11:31.527Z,21.57
2017-11-07T20:13:58.934Z,22.00
2017-11-07T20:16:26.323Z,22.50
2017-11-07T20:18:53.712Z,20.60
2017-11-07T20:21:21.138Z,19.50
2017-11-07T20:23:48.534Z,20.70
2017-11-07T20:26:15.930Z,20.03
2017-11-07T20:28:43.346Z,19.70
2017-11-07T20:31:10.745Z,19.47
2017-11-07T20:33:38.145Z,21.23
2017-11-07T20:36:05.563Z,19.43
2017-11-07T20:38:32.952Z,20.27
2017-11-07T20:41:00.334Z,19.80
2017-11-07T20:43:27.754Z,22.10
2017-11-07T20:45:55.137Z,19.60
2017-11-07T20:48:22.538Z,21.10
2017-11-07T20:50:49.934Z,22.20
2017-11-07T20:53:17.322Z,23.43
2017-11-07T20:55:44.711Z,22.30
2017-11-07T20:58:12.121Z,20.90
2017-11-07T21:00:39.514Z,19.93
2017-11-07T21:03:06.907Z,19.40
2017-11-07T21:05:34.302Z,19.93
2017-11-07T21:08:01.697Z,19.83
2017-11-07T21:10:29.081Z,21.87
2017-11-07T21:12:56.490Z,25.50
2017-11-07T21:15:23.869Z,24.00
2017-11-07T21:17:51.258Z,23.73
2017-11-07T21:20:18.688Z,22.67
2017-11-07T21:22:46.075Z,25.27
2017-11-07T21:25:13.466Z,23.80
2017-11-07T21:27:40.874Z,24.07
2017-11-07T21:30:08.262Z,24.10
2017-11-07T21:32:35.679Z,26.87
2017-11-07T21:35:03.944Z,29.07
2017-11-07T21:37:31.335Z,26.87
2017-11-07T21:39:58.721Z,28.27
2017-11-07T21:42:26.129Z,28.83
2017-11-07T21:44:53.531Z,29.37
2017-11-07T21:47:20.922Z,28.40
2017-11-07T21:49:48.331Z,28.70
2017-11-07T21:52:15.721Z,30.30
2017-11-07T21:54:43.111Z,28.30
2017-11-07T21:57:10.507Z,28.60
2017-11-07T21:59:37.899Z,30.40
2017-11-07T22:02:05.286Z,29.30
2017-11-07T22:04:32.695Z,30.17
2017-11-07T22:07:00.078Z,28.53
2017-11-07T22:09:27.467Z,30.17
2017-11-07T22:11:54.876Z,29.50
2017-11-07T22:14:22.259Z,30.40
2017-11-07T22:16:53.468Z,29.43
2017-11-07T22:19:20.977Z,29.40
2017-11-07T22:21:50.047Z,30.50
2017-11-07T22:24:17.436Z,29.60
2017-11-07T22:26:44.854Z,31.67
2017-11-07T22:29:12.251Z,31.77
2017-11-07T22:31:39.631Z,31.27
2017-11-07T22:34:07.030Z,33.37
2017-11-07T22:36:34.423Z,33.10
2017-11-07T22:39:01.810Z,34.10
2017-11-07T22:41:29.229Z,33.27
2017-11-07T22:43:56.611Z,32.10
2017-11-07T22:46:24.007Z,32.37
2017-11-07T22:48:51.610Z,34.47
2017-11-07T22:51:18.987Z,32.20
2017-11-07T22:53:46.374Z,32.23
2017-11-07T22:56:13.775Z,32.80
2017-11-07T22:58:41.163Z,32.90
2017-11-07T23:01:08.546Z,31.63
2017-11-07T23:03:35.950Z,34.13
2017-11-07T23:06:03.334Z,33.50
2017-11-07T23:08:30.733Z,33.70
2017-11-07T23:10:58.139Z,31.00
2017-11-07T23:13:27.314Z,31.50
2017-11-07T23:15:54.702Z,33.03
2017-11-07T23:18:22.107Z,34.13
2017-11-07T23:20:49.494Z,33.10
2017-11-07T23:23:16.886Z,31.10
2017-11-07T23:25:44.289Z,31.33
2017-11-07T23:28:11.682Z,31.43
2017-11-07T23:30:39.089Z,31.50
2017-11-07T23:33:06.474Z,30.10
2017-11-07T23:35:33.862Z,32.73
2017-11-07T23:38:01.250Z,31.17
2017-11-07T23:40:28.653Z,28.93
2017-11-07T23:42:56.041Z,30.10
2017-11-07T23:45:23.431Z,31.37
2017-11-07T23:47:50.830Z,30.90
2017-11-07T23:50:18.222Z,31.00
2017-11-07T23:52:45.614Z,30.97
2017-11-07T23:55:13.019Z,29.33
2017-11-07T23:57:40.410Z,29.73
